Terminal Aerodrome Forecast
Issued by NWS Wakefield, VA

Home | Current Version | Previous Version | Text Only | Print | Product List | Glossary On
Versions: 1 2 3 4 5 6 7 8 9 10 11 12 13 14 15 16 17 18 19 20 21 22 23 24 25 26 27 28 29 30 31 32 33
000
FTUS41 KAKQ 251100
TAFORF
TAF
KORF 251125Z 2512/2612 23008KT P6SM SCT015 SCT050 BKN120
     FM251500 32008G16KT P6SM SCT120=

USA.gov is the U.S. government's official web portal to all federal, state and local government web resources and services.